createdAt,value
2022-08-17T00:00:42.683Z,21.60
2022-08-17T00:03:08.257Z,20.43
2022-08-17T00:05:42.218Z,21.57
2022-08-17T00:08:10.604Z,23.97
2022-08-17T00:10:39.420Z,21.30
2022-08-17T00:13:14.281Z,20.75
2022-08-17T00:15:42.300Z,19.10
2022-08-17T00:19:06.808Z,18.17
2022-08-17T00:21:00.756Z,19.10
2022-08-17T00:23:29.475Z,22.60
2022-08-17T00:25:57.556Z,21.40
2022-08-17T00:28:26.255Z,21.63
2022-08-17T00:30:59.319Z,19.93
2022-08-17T00:33:32.943Z,18.47
2022-08-17T00:36:03.235Z,18.80
2022-08-17T00:38:31.552Z,16.43
2022-08-17T00:41:04.255Z,19.70
2022-08-17T00:43:35.224Z,20.40
2022-08-17T00:46:06.048Z,23.43
2022-08-17T00:48:34.437Z,20.40
2022-08-17T00:51:17.246Z,17.40
2022-08-17T00:53:49.179Z,13.50
2022-08-17T00:56:23.295Z,15.20
2022-08-17T00:58:55.451Z,15.53
2022-08-17T01:01:24.128Z,20.37
2022-08-17T01:03:53.546Z,18.23
2022-08-17T01:06:28.287Z,15.83
2022-08-17T01:08:58.875Z,16.77
2022-08-17T01:11:27.347Z,16.13
2022-08-17T01:13:55.428Z,20.40
2022-08-17T01:16:25.955Z,15.60
2022-08-17T01:18:57.751Z,19.83
2022-08-17T01:21:32.951Z,16.30
2022-08-17T01:24:02.625Z,18.60
2022-08-17T01:26:32.926Z,17.03
2022-08-17T01:29:02.474Z,18.40
2022-08-17T01:31:35.830Z,17.27
2022-08-17T01:34:07.454Z,15.43
2022-08-17T01:36:35.891Z,17.93
2022-08-17T01:39:05.967Z,17.47
2022-08-17T01:41:34.166Z,16.80
2022-08-17T01:44:05.677Z,15.93
2022-08-17T01:46:35.758Z,13.37
2022-08-17T01:49:07.552Z,18.70
2022-08-17T01:51:35.702Z,17.10
2022-08-17T01:54:07.854Z,16.73
2022-08-17T01:56:39.566Z,14.40
2022-08-17T01:59:07.582Z,15.73
2022-08-17T02:01:37.214Z,16.37
2022-08-17T02:04:08.365Z,15.47
2022-08-17T02:06:52.710Z,16.07
2022-08-17T02:09:25.529Z,14.80
2022-08-17T02:11:54.655Z,14.53
2022-08-17T02:14:23.539Z,13.90
2022-08-17T02:16:51.895Z,15.57
2022-08-17T02:19:21.823Z,16.53
2022-08-17T02:21:54.743Z,14.97
2022-08-17T02:25:01.044Z,15.40
2022-08-17T02:27:15.668Z,12.20
2022-08-17T02:29:43.687Z,18.87
2022-08-17T02:32:25.370Z,13.90
2022-08-17T02:34:56.450Z,14.07
2022-08-17T02:37:24.634Z,14.40
2022-08-17T02:39:54.165Z,15.17
2022-08-17T02:42:27.834Z,15.20
2022-08-17T02:44:55.928Z,12.23
2022-08-17T02:47:24.573Z,14.10
2022-08-17T02:49:55.677Z,13.90
2022-08-17T02:52:43.162Z,16.40
2022-08-17T02:55:16.442Z,13.03
2022-08-17T02:57:45.068Z,16.07
2022-08-17T03:00:21.212Z,15.77
2022-08-17T03:02:50.006Z,16.57
2022-08-17T03:05:23.932Z,13.03
2022-08-17T03:07:52.648Z,13.23
2022-08-17T03:10:22.531Z,11.67
2022-08-17T03:12:50.819Z,12.40
2022-08-17T03:15:21.521Z,12.97
2022-08-17T03:17:50.061Z,12.87
2022-08-17T03:20:18.272Z,16.67
2022-08-17T03:22:53.231Z,20.33
2022-08-17T03:25:25.727Z,18.00
2022-08-17T03:27:54.768Z,20.27
2022-08-17T03:30:23.684Z,20.13
2022-08-17T03:32:55.704Z,18.70
2022-08-17T03:35:26.762Z,16.67
2022-08-17T03:38:00.844Z,18.50
2022-08-17T03:40:58.020Z,20.63
2022-08-17T03:43:21.096Z,15.30
2022-08-17T03:46:11.082Z,16.93
2022-08-17T03:49:23.529Z,18.77
2022-08-17T03:52:08.779Z,15.23
2022-08-17T03:54:54.223Z,15.53
2022-08-17T03:57:23.944Z,18.23
2022-08-17T03:59:52.175Z,17.50
2022-08-17T04:02:23.083Z,17.40
2022-08-17T04:04:52.331Z,18.07
2022-08-17T04:07:21.609Z,14.83
2022-08-17T04:09:49.787Z,15.60
2022-08-17T04:12:19.099Z,15.83
2022-08-17T04:14:53.245Z,14.57
2022-08-17T04:17:24.422Z,14.63
2022-08-17T04:19:52.977Z,14.43
2022-08-17T04:22:31.767Z,16.83
2022-08-17T04:25:03.847Z,15.23
2022-08-17T04:27:31.863Z,21.53
2022-08-17T04:30:01.516Z,17.57
2022-08-17T04:33:04.430Z,19.73
2022-08-17T04:35:22.251Z,16.10
2022-08-17T04:37:50.636Z,18.17
2022-08-17T04:40:38.159Z,18.30
2022-08-17T04:43:09.234Z,17.33
2022-08-17T04:45:51.204Z,21.60
2022-08-17T04:48:35.597Z,19.00
2022-08-17T04:51:07.939Z,21.13
2022-08-17T04:53:36.561Z,21.03
2022-08-17T04:56:05.393Z,22.43
2022-08-17T04:58:33.598Z,20.67
2022-08-17T05:01:03.175Z,20.50
2022-08-17T05:03:31.930Z,20.53
2022-08-17T05:05:59.915Z,22.27
2022-08-17T05:08:28.049Z,25.37
2022-08-17T05:10:56.408Z,22.30
2022-08-17T05:13:26.187Z,22.77
2022-08-17T05:15:57.810Z,25.53
2022-08-17T05:18:28.371Z,28.13
2022-08-17T05:20:56.553Z,24.00
2022-08-17T05:23:26.883Z,24.70
2022-08-17T05:26:03.783Z,26.20
2022-08-17T05:28:35.519Z,25.37
2022-08-17T05:31:04.631Z,28.00
2022-08-17T05:33:36.258Z,24.87
2022-08-17T05:36:07.499Z,29.43
2022-08-17T05:38:35.811Z,27.87
2022-08-17T05:41:06.195Z,27.33
2022-08-17T05:43:37.148Z,26.27
2022-08-17T05:46:08.691Z,28.57
2022-08-17T05:48:41.072Z,29.70
2022-08-17T05:51:46.030Z,25.83
2022-08-17T05:54:32.874Z,27.30
2022-08-17T05:57:32.762Z,25.23
2022-08-17T06:00:07.758Z,29.10
2022-08-17T06:02:51.957Z,26.73
2022-08-17T06:05:49.363Z,28.43
2022-08-17T06:08:26.995Z,24.70
2022-08-17T06:11:00.456Z,24.80
2022-08-17T06:13:50.239Z,26.67
2022-08-17T06:16:33.309Z,23.47
2022-08-17T06:19:07.597Z,24.10
2022-08-17T06:21:42.106Z,23.53
2022-08-17T06:24:26.391Z,24.40
2022-08-17T06:26:56.998Z,23.53
2022-08-17T06:29:37.153Z,22.00
2022-08-17T06:32:09.106Z,22.63
2022-08-17T06:34:39.274Z,26.80
2022-08-17T06:37:21.223Z,23.23
2022-08-17T06:39:59.361Z,23.83
2022-08-17T06:43:02.172Z,22.13
2022-08-17T06:45:32.201Z,23.03
2022-08-17T06:48:07.812Z,23.87
2022-08-17T06:50:38.745Z,24.08
2022-08-17T06:53:17.669Z,25.57
2022-08-17T06:55:54.315Z,26.63
2022-08-17T06:58:29.554Z,25.00
2022-08-17T07:01:01.024Z,24.20
2022-08-17T07:03:37.960Z,25.70
2022-08-17T07:06:12.381Z,24.17
2022-08-17T07:08:52.141Z,24.15
2022-08-17T07:11:27.148Z,23.55
2022-08-17T07:14:05.312Z,21.25
2022-08-17T07:16:39.577Z,18.67
2022-08-17T07:19:08.389Z,18.27
2022-08-17T07:21:49.725Z,14.48
2022-08-17T07:24:33.148Z,15.38
2022-08-17T07:27:07.939Z,13.98
2022-08-17T07:29:40.949Z,12.73
2022-08-17T07:32:11.027Z,15.18
2022-08-17T07:35:01.209Z,12.18
2022-08-17T07:37:32.323Z,13.15
2022-08-17T07:40:16.856Z,13.00
2022-08-17T07:43:06.483Z,13.77
2022-08-17T07:45:54.074Z,13.02
2022-08-17T07:48:28.262Z,12.43
2022-08-17T07:50:57.268Z,12.52
2022-08-17T07:53:27.081Z,13.52
2022-08-17T07:55:56.514Z,12.32
2022-08-17T07:58:26.544Z,12.68
2022-08-17T08:01:06.574Z,12.77
2022-08-17T08:03:41.190Z,12.13
2022-08-17T08:06:21.689Z,11.35
2022-08-17T08:08:54.784Z,13.15
2022-08-17T08:11:33.792Z,15.55
2022-08-17T08:14:22.550Z,10.70
2022-08-17T08:17:00.101Z,11.10
2022-08-17T08:19:29.488Z,12.15
2022-08-17T08:22:04.013Z,11.23
2022-08-17T08:24:52.713Z,10.73
2022-08-17T08:27:30.696Z,10.80
2022-08-17T08:30:06.201Z,9.05
2022-08-17T08:32:48.630Z,9.80
2022-08-17T08:35:30.836Z,11.82
2022-08-17T08:38:07.778Z,9.30
2022-08-17T08:40:52.302Z,11.13
2022-08-17T08:43:32.322Z,10.35
2022-08-17T08:46:11.479Z,7.80
2022-08-17T08:49:12.038Z,8.65
2022-08-17T08:51:53.166Z,9.13
2022-08-17T08:54:34.788Z,10.45
2022-08-17T08:57:25.684Z,14.65
2022-08-17T09:00:12.645Z,12.02
2022-08-17T09:03:28.130Z,11.10
2022-08-17T09:06:33.509Z,11.30
2022-08-17T09:09:18.418Z,7.65
2022-08-17T09:12:01.756Z,8.77
2022-08-17T09:14:45.217Z,8.77
2022-08-17T09:17:19.980Z,10.85
2022-08-17T09:19:54.208Z,7.72
2022-08-17T09:22:31.623Z,7.90
2022-08-17T09:25:07.779Z,6.75
2022-08-17T09:27:47.711Z,7.68
2022-08-17T09:30:15.918Z,7.10
2022-08-17T09:32:52.126Z,7.97
2022-08-17T09:35:25.074Z,7.72
2022-08-17T09:38:06.271Z,9.10
2022-08-17T09:40:40.354Z,7.38
2022-08-17T09:43:17.506Z,8.35
2022-08-17T09:45:50.626Z,7.00
2022-08-17T09:48:26.031Z,6.80
2022-08-17T09:51:04.661Z,6.82
2022-08-17T09:53:34.625Z,6.65
2022-08-17T09:56:25.049Z,7.15
2022-08-17T09:59:17.851Z,6.57
2022-08-17T10:01:52.687Z,7.45
2022-08-17T10:04:33.987Z,6.53
2022-08-17T10:07:08.073Z,6.10
2022-08-17T10:09:48.483Z,7.18
2022-08-17T10:12:30.110Z,6.55
2022-08-17T10:15:15.623Z,7.10
2022-08-17T10:18:07.477Z,6.28
2022-08-17T10:20:47.573Z,6.18
2022-08-17T10:23:36.478Z,7.80
2022-08-17T10:26:21.681Z,6.07
2022-08-17T10:28:53.682Z,7.32
2022-08-17T10:31:34.753Z,6.55
2022-08-17T10:34:40.360Z,7.25
2022-08-17T10:37:29.322Z,5.78
2022-08-17T10:40:13.994Z,6.43
2022-08-17T10:42:50.167Z,6.57
2022-08-17T10:45:26.252Z,6.10
2022-08-17T10:48:05.306Z,7.07
2022-08-17T10:50:58.627Z,6.50
2022-08-17T10:53:56.916Z,6.20
2022-08-17T10:56:41.988Z,5.72
2022-08-17T10:59:10.113Z,6.15
2022-08-17T11:01:59.804Z,7.78
2022-08-17T11:04:46.364Z,7.47
2022-08-17T11:07:22.996Z,6.43
2022-08-17T11:10:10.613Z,5.95
2022-08-17T11:12:45.028Z,5.47
2022-08-17T11:15:26.451Z,6.38
2022-08-17T11:18:17.762Z,6.43
2022-08-17T11:21:13.899Z,5.90
2022-08-17T11:23:56.967Z,6.35
2022-08-17T11:26:29.681Z,5.82
2022-08-17T11:29:02.140Z,6.35
2022-08-17T11:31:38.776Z,6.35
2022-08-17T11:34:14.792Z,6.07
2022-08-17T11:37:03.465Z,5.50
2022-08-17T11:40:05.972Z,5.55
2022-08-17T11:42:50.782Z,6.30
2022-08-17T11:45:35.003Z,6.70
2022-08-17T11:48:30.268Z,5.43
2022-08-17T11:51:24.759Z,6.05
2022-08-17T11:54:31.192Z,5.78
2022-08-17T11:56:52.805Z,7.20
2022-08-17T11:59:58.806Z,6.45
2022-08-17T12:02:48.153Z,6.22
2022-08-17T12:05:33.430Z,7.03
2022-08-17T12:08:12.425Z,7.47
2022-08-17T12:10:57.170Z,6.03
2022-08-17T12:13:37.059Z,5.70
2022-08-17T12:16:14.381Z,5.60
2022-08-17T12:18:50.492Z,6.10
2022-08-17T12:21:28.504Z,6.28
2022-08-17T12:24:00.215Z,5.82
2022-08-17T12:26:31.280Z,5.95
2022-08-17T12:29:02.620Z,6.00
2022-08-17T12:31:35.597Z,6.68
2022-08-17T12:34:04.894Z,7.95
2022-08-17T12:36:34.660Z,6.03
2022-08-17T12:39:14.139Z,7.30
2022-08-17T12:41:47.045Z,6.50
2022-08-17T12:44:18.724Z,6.95
2022-08-17T12:46:53.321Z,5.22
2022-08-17T12:49:29.002Z,5.50
2022-08-17T12:52:13.379Z,5.78
2022-08-17T12:54:47.887Z,5.32
2022-08-17T12:57:18.808Z,5.63
2022-08-17T12:59:52.040Z,5.47
2022-08-17T13:02:32.470Z,5.47
2022-08-17T13:05:02.464Z,5.70
2022-08-17T13:07:35.127Z,6.38
2022-08-17T13:10:04.066Z,6.50
2022-08-17T13:12:35.961Z,6.47
2022-08-17T13:15:04.682Z,6.93
2022-08-17T13:17:36.583Z,6.82
2022-08-17T13:20:07.166Z,6.35
2022-08-17T13:22:44.387Z,9.35
2022-08-17T13:25:17.913Z,7.00
2022-08-17T13:27:48.562Z,7.22
2022-08-17T13:30:24.105Z,7.07
2022-08-17T13:32:53.842Z,7.00
2022-08-17T13:35:39.886Z,7.03
2022-08-17T13:38:10.666Z,7.00
2022-08-17T13:40:51.973Z,6.15
2022-08-17T13:43:44.984Z,5.80
2022-08-17T13:46:19.838Z,6.07
2022-08-17T13:48:59.472Z,5.10
2022-08-17T13:51:34.224Z,5.82
2022-08-17T13:54:08.999Z,6.00
2022-08-17T13:56:48.146Z,5.68
2022-08-17T13:59:53.678Z,6.40
2022-08-17T14:02:15.816Z,6.82
2022-08-17T14:04:47.143Z,6.65
2022-08-17T14:07:32.410Z,6.45
2022-08-17T14:10:03.270Z,7.43
2022-08-17T14:12:34.122Z,6.63
2022-08-17T14:15:03.134Z,7.28
2022-08-17T14:17:37.958Z,6.72
2022-08-17T14:20:12.171Z,6.63
2022-08-17T14:22:44.182Z,7.32
2022-08-17T14:25:14.874Z,6.82
2022-08-17T14:27:53.208Z,6.53
2022-08-17T14:30:23.782Z,6.40
2022-08-17T14:32:52.965Z,6.57
2022-08-17T14:35:24.326Z,6.40
2022-08-17T14:37:53.753Z,6.15
2022-08-17T14:40:24.683Z,6.57
2022-08-17T14:42:54.429Z,6.57
2022-08-17T14:45:31.510Z,6.28
2022-08-17T14:48:04.061Z,6.32
2022-08-17T14:50:35.584Z,6.93
2022-08-17T14:53:05.142Z,7.75
2022-08-17T14:55:33.560Z,7.03
2022-08-17T14:58:01.770Z,6.80
2022-08-17T15:00:29.817Z,6.75
2022-08-17T15:02:59.249Z,6.85
2022-08-17T15:05:31.471Z,5.75
2022-08-17T15:08:01.948Z,6.03
2022-08-17T15:10:31.087Z,6.38
2022-08-17T15:13:00.206Z,6.38
2022-08-17T15:15:29.188Z,7.38
2022-08-17T15:17:57.554Z,6.63
2022-08-17T15:20:28.331Z,6.50
2022-08-17T15:22:57.503Z,6.50
2022-08-17T15:25:28.755Z,5.82
2022-08-17T15:27:56.817Z,5.88
2022-08-17T15:30:26.581Z,6.03
2022-08-17T15:32:55.728Z,7.00
2022-08-17T15:35:27.311Z,6.28
2022-08-17T15:37:57.236Z,5.85
2022-08-17T15:40:26.715Z,6.07
2022-08-17T15:42:55.212Z,5.82
2022-08-17T15:45:26.552Z,5.80
2022-08-17T15:47:54.606Z,5.70
2022-08-17T15:50:23.004Z,6.13
2022-08-17T15:52:57.942Z,6.10
2022-08-17T15:55:29.480Z,6.28
2022-08-17T15:57:57.507Z,5.60
2022-08-17T16:00:28.268Z,5.80
2022-08-17T16:03:20.362Z,9.32
2022-08-17T16:05:45.381Z,5.57
2022-08-17T16:08:20.070Z,6.18
2022-08-17T16:10:51.236Z,6.28
2022-08-17T16:13:19.927Z,6.20
2022-08-17T16:15:56.731Z,6.20
2022-08-17T16:18:30.895Z,6.78
2022-08-17T16:21:19.839Z,5.68
2022-08-17T16:23:49.151Z,5.90
2022-08-17T16:26:19.362Z,5.90
2022-08-17T16:28:47.575Z,7.57
2022-08-17T16:31:15.792Z,6.63
2022-08-17T16:34:15.707Z,5.93
2022-08-17T16:36:33.395Z,6.18
2022-08-17T16:39:01.496Z,6.55
2022-08-17T16:41:50.739Z,5.93
2022-08-17T16:44:22.717Z,6.18
2022-08-17T16:46:51.201Z,6.32
2022-08-17T16:49:35.384Z,6.43
2022-08-17T16:52:05.920Z,5.85
2022-08-17T16:54:35.514Z,6.03
2022-08-17T16:57:05.626Z,6.47
2022-08-17T16:59:40.883Z,7.30
2022-08-17T17:02:13.572Z,6.70
2022-08-17T17:04:47.475Z,7.85
2022-08-17T17:07:35.104Z,8.60
2022-08-17T17:10:08.747Z,9.98
2022-08-17T17:13:03.597Z,7.45
2022-08-17T17:15:32.628Z,6.25
2022-08-17T17:18:07.006Z,8.30
2022-08-17T17:20:41.489Z,7.97
2022-08-17T17:23:13.018Z,6.70
2022-08-17T17:25:48.911Z,8.65
2022-08-17T17:28:28.721Z,7.00
2022-08-17T17:31:02.406Z,8.27
2022-08-17T17:33:37.258Z,6.80
2022-08-17T17:36:14.017Z,6.82
2022-08-17T17:38:45.262Z,9.07
2022-08-17T17:41:25.326Z,6.65
2022-08-17T17:44:03.378Z,10.90
2022-08-17T17:46:37.789Z,7.90
2022-08-17T17:49:06.322Z,8.52
2022-08-17T17:52:07.798Z,6.40
2022-08-17T17:54:40.420Z,9.80
2022-08-17T17:57:15.666Z,7.53
2022-08-17T17:59:54.406Z,7.30
2022-08-17T18:02:52.083Z,6.75
2022-08-17T18:05:45.101Z,8.98
2022-08-17T18:08:32.232Z,11.15
2022-08-17T18:11:13.817Z,7.97
2022-08-17T18:14:00.328Z,6.82
2022-08-17T18:16:32.146Z,6.97
2022-08-17T18:19:01.189Z,7.20
2022-08-17T18:21:37.767Z,7.43
2022-08-17T18:24:10.415Z,10.43
2022-08-17T18:26:52.625Z,7.90
2022-08-17T18:29:30.238Z,8.43
2022-08-17T18:32:37.679Z,7.40
2022-08-17T18:35:30.472Z,8.32
2022-08-17T18:38:20.403Z,8.27
2022-08-17T18:40:59.433Z,8.32
2022-08-17T18:43:44.072Z,7.40
2022-08-17T18:46:28.140Z,8.88
2022-08-17T18:49:05.045Z,8.98
2022-08-17T18:51:40.733Z,7.95
2022-08-17T18:54:20.733Z,12.38
2022-08-17T18:56:55.909Z,9.07
2022-08-17T18:59:39.861Z,8.88
2022-08-17T19:02:45.482Z,7.85
2022-08-17T19:05:25.977Z,12.40
2022-08-17T19:08:14.509Z,8.43
2022-08-17T19:10:46.238Z,9.82
2022-08-17T19:13:24.388Z,9.02
2022-08-17T19:16:11.795Z,13.32
2022-08-17T19:18:47.617Z,8.90
2022-08-17T19:21:19.363Z,9.13
2022-08-17T19:23:54.040Z,8.93
2022-08-17T19:26:50.987Z,11.65
2022-08-17T19:29:16.574Z,10.65
2022-08-17T19:31:47.832Z,11.02
2022-08-17T19:34:32.321Z,9.50
2022-08-17T19:37:06.847Z,10.27
2022-08-17T19:39:44.134Z,12.48
2022-08-17T19:42:17.168Z,12.43
2022-08-17T19:44:56.280Z,10.68
2022-08-17T19:47:53.671Z,38.70
2022-08-17T19:50:26.403Z,45.92
2022-08-17T19:53:02.661Z,29.20
2022-08-17T19:55:47.696Z,23.23
2022-08-17T19:58:27.917Z,27.02
2022-08-17T20:00:56.292Z,36.72
2022-08-17T20:03:28.099Z,40.38
2022-08-17T20:06:12.472Z,26.40
2022-08-17T20:08:46.631Z,25.33
2022-08-17T20:11:21.245Z,25.80
2022-08-17T20:14:00.727Z,30.25
2022-08-17T20:16:28.971Z,38.83
2022-08-17T20:19:01.711Z,38.85
2022-08-17T20:21:35.468Z,22.10
2022-08-17T20:24:20.024Z,24.98
2022-08-17T20:26:58.407Z,19.73
2022-08-17T20:29:39.694Z,17.95
2022-08-17T20:32:22.710Z,21.00
2022-08-17T20:35:04.312Z,20.90
2022-08-17T20:37:35.039Z,18.13
2022-08-17T20:40:38.337Z,15.75
2022-08-17T20:43:40.039Z,15.95
2022-08-17T20:46:19.211Z,18.38
2022-08-17T20:48:50.795Z,16.42
2022-08-17T20:51:25.956Z,14.77
2022-08-17T20:54:35.383Z,15.10
2022-08-17T20:57:13.662Z,18.55
2022-08-17T20:59:56.802Z,17.05
2022-08-17T21:02:28.231Z,17.20
2022-08-17T21:05:34.731Z,14.38
2022-08-17T21:08:14.942Z,15.05
2022-08-17T21:10:45.599Z,18.27
2022-08-17T21:13:41.562Z,15.57
2022-08-17T21:16:41.361Z,14.65
2022-08-17T21:19:23.922Z,14.15
2022-08-17T21:22:06.065Z,14.82
2022-08-17T21:24:44.834Z,15.80
2022-08-17T21:27:27.483Z,13.27
2022-08-17T21:30:23.678Z,14.40
2022-08-17T21:33:31.619Z,16.27
2022-08-17T21:36:27.615Z,14.75
2022-08-17T21:39:08.714Z,15.70
2022-08-17T21:41:52.736Z,13.70
2022-08-17T21:44:30.533Z,15.23
2022-08-17T21:47:14.415Z,16.27
2022-08-17T21:49:42.967Z,16.75
2022-08-17T21:52:15.774Z,17.05
2022-08-17T21:54:50.994Z,15.57
2022-08-17T21:57:21.971Z,14.85
2022-08-17T21:59:54.912Z,14.73
2022-08-17T22:02:25.862Z,13.45
2022-08-17T22:04:59.012Z,15.63
2022-08-17T22:07:42.090Z,18.33
2022-08-17T22:10:30.422Z,17.75
2022-08-17T22:13:16.916Z,16.50
2022-08-17T22:15:47.835Z,18.85
2022-08-17T22:18:22.891Z,21.15
2022-08-17T22:20:53.212Z,17.42
2022-08-17T22:23:47.359Z,15.57
2022-08-17T22:26:18.775Z,16.20
2022-08-17T22:28:50.110Z,17.20
2022-08-17T22:31:19.637Z,17.27
2022-08-17T22:33:50.402Z,17.83
2022-08-17T22:36:26.927Z,20.80
2022-08-17T22:39:00.196Z,15.65
2022-08-17T22:41:40.546Z,20.70
2022-08-17T22:44:15.330Z,17.35
2022-08-17T22:46:59.392Z,15.38
2022-08-17T22:49:30.709Z,19.75
2022-08-17T22:52:11.378Z,15.75
2022-08-17T22:54:58.062Z,18.83
2022-08-17T22:57:44.464Z,16.88
2022-08-17T23:00:35.770Z,18.52
2022-08-17T23:03:17.770Z,19.15
2022-08-17T23:05:48.969Z,16.92
2022-08-17T23:08:21.153Z,17.90
2022-08-17T23:10:50.843Z,17.10
2022-08-17T23:13:21.290Z,17.35
2022-08-17T23:15:51.646Z,22.23
2022-08-17T23:18:19.684Z,15.70
2022-08-17T23:20:47.843Z,17.13
2022-08-17T23:23:18.748Z,18.67
2022-08-17T23:25:50.045Z,20.52
2022-08-17T23:28:18.038Z,19.23
2022-08-17T23:30:48.595Z,17.83
2022-08-17T23:33:22.254Z,17.75
2022-08-17T23:35:50.294Z,17.90
2022-08-17T23:38:18.381Z,18.45
2022-08-17T23:40:46.513Z,18.13
2022-08-17T23:43:24.584Z,18.38
2022-08-17T23:45:54.934Z,20.98
2022-08-17T23:48:35.056Z,18.25
2022-08-17T23:51:08.644Z,18.60
2022-08-17T23:53:38.211Z,19.30
2022-08-17T23:56:07.614Z,20.00
2022-08-17T23:58:40.444Z,19.17
